Skookumchuck, Canada
Current Conditions -  °F | °C
As of 9:35 PM on Saturday 25 Oct 2014 (Local Time) from CYXC Reporting Station
Rain Showers Rain Showers  
Wind Chill: 37°   Ceiling: 4200
Heat Index: 43°   Visibility: 5mi
Dew Point: 41°   Wind: 9mph
Humidity: 93%   Direction: 160°SSE
Pressure: 29.6"   Gusts: NA
Location:  49.9°N, 115.77°W
Report Text: CYXC 260335Z 16008KT 140V280 5SM SHRA BR FEW015 OVC042 06/05 A2960 RMK SF2SC6 CVCTV CLD EMBD PRESRR SLP040 DENSITY ALT 3100FT
Loading
Personal Weather Stations






























Interactive Weather Map
Tropical Storm Tracking
New forecast layout! Learn more

10-Day Weather Forecast

Advertisements
Track Severe Weather on mobile